createdAt,value
2022-10-05T00:00:18.609Z,8.69
2022-10-05T00:01:52.943Z,8.71
2022-10-05T00:03:27.222Z,8.71
2022-10-05T00:05:02.002Z,8.72
2022-10-05T00:06:35.313Z,8.72
2022-10-05T00:08:15.253Z,8.66
2022-10-05T00:09:56.397Z,8.58
2022-10-05T00:11:29.857Z,8.54
2022-10-05T00:13:02.332Z,8.48
2022-10-05T00:14:37.599Z,8.42
2022-10-05T00:16:17.459Z,8.41
2022-10-05T00:17:50.734Z,8.36
2022-10-05T00:19:30.217Z,8.35
2022-10-05T00:21:17.973Z,8.31
2022-10-05T00:22:56.862Z,8.27
2022-10-05T00:24:31.105Z,8.24
2022-10-05T00:26:12.583Z,8.23
2022-10-05T00:27:55.954Z,8.19
2022-10-05T00:29:29.501Z,8.14
2022-10-05T00:31:04.354Z,8.09
2022-10-05T00:32:37.485Z,8.07
2022-10-05T00:34:09.824Z,8.06
2022-10-05T00:35:43.295Z,8.00
2022-10-05T00:37:17.806Z,8.05
2022-10-05T00:38:51.192Z,8.02
2022-10-05T00:40:38.207Z,8.05
2022-10-05T00:42:35.724Z,8.07
2022-10-05T00:44:25.424Z,8.08
2022-10-05T00:46:08.807Z,8.09
2022-10-05T00:47:55.194Z,8.08
2022-10-05T00:49:49.694Z,8.07
2022-10-05T00:51:26.948Z,8.10
2022-10-05T00:53:12.922Z,8.11
2022-10-05T00:54:51.122Z,8.11
2022-10-05T00:56:39.356Z,8.12
2022-10-05T00:58:24.991Z,8.13
2022-10-05T01:00:06.498Z,8.16
2022-10-05T01:01:50.004Z,8.19
2022-10-05T01:03:28.570Z,8.21
2022-10-05T01:05:10.816Z,8.19
2022-10-05T01:06:55.716Z,8.17
2022-10-05T01:08:41.834Z,8.12
2022-10-05T01:10:23.154Z,8.06
2022-10-05T01:12:04.736Z,8.02
2022-10-05T01:13:48.150Z,7.94
2022-10-05T01:15:28.879Z,7.93
2022-10-05T01:17:09.703Z,7.90
2022-10-05T01:18:51.718Z,7.91
2022-10-05T01:20:48.657Z,7.84
2022-10-05T01:22:34.639Z,7.81
2022-10-05T01:24:40.265Z,7.69
2022-10-05T01:26:44.786Z,7.52
2022-10-05T01:28:25.584Z,7.41
2022-10-05T01:30:04.851Z,7.38
2022-10-05T01:31:46.271Z,7.40
2022-10-05T01:33:26.948Z,7.39
2022-10-05T01:35:07.272Z,7.40
2022-10-05T01:36:52.615Z,7.40
2022-10-05T01:38:37.238Z,7.42
2022-10-05T01:40:19.910Z,7.41
2022-10-05T01:42:00.009Z,7.40
2022-10-05T01:43:43.172Z,7.37
2022-10-05T01:45:24.115Z,7.37
2022-10-05T01:47:03.307Z,7.29
2022-10-05T01:48:49.689Z,7.33
2022-10-05T01:50:31.031Z,7.32
2022-10-05T01:52:18.499Z,7.31
2022-10-05T01:54:05.658Z,7.31
2022-10-05T01:55:46.388Z,7.37
2022-10-05T01:57:31.654Z,7.40
2022-10-05T01:59:18.058Z,7.41
2022-10-05T02:01:01.592Z,7.42
2022-10-05T02:02:39.711Z,7.40
2022-10-05T02:04:42.602Z,7.39
2022-10-05T02:06:16.452Z,7.40
2022-10-05T02:07:55.409Z,7.44
2022-10-05T02:09:33.284Z,7.47
2022-10-05T02:11:08.547Z,7.50
2022-10-05T02:12:42.905Z,7.40
2022-10-05T02:14:22.900Z,7.50
2022-10-05T02:16:01.822Z,7.51
2022-10-05T02:17:41.013Z,7.48
2022-10-05T02:19:19.968Z,7.45
2022-10-05T02:20:55.648Z,7.33
2022-10-05T02:22:33.674Z,7.28
2022-10-05T02:24:11.829Z,7.30
2022-10-05T02:25:48.151Z,7.34
2022-10-05T02:27:26.785Z,7.37
2022-10-05T02:29:05.407Z,7.39
2022-10-05T02:30:45.716Z,7.34
2022-10-05T02:32:24.208Z,7.20
2022-10-05T02:34:22.762Z,7.13
2022-10-05T02:36:02.777Z,7.10
2022-10-05T02:37:54.499Z,7.08
2022-10-05T02:39:37.237Z,7.04
2022-10-05T02:41:21.797Z,7.02
2022-10-05T02:43:01.057Z,6.99
2022-10-05T02:44:45.226Z,7.00
2022-10-05T02:46:30.533Z,7.02
2022-10-05T02:48:12.302Z,7.03
2022-10-05T02:49:52.480Z,7.02
2022-10-05T02:51:29.592Z,7.04
2022-10-05T02:53:15.606Z,7.02
2022-10-05T02:54:54.854Z,6.98
2022-10-05T02:56:33.504Z,6.87
2022-10-05T02:58:13.156Z,6.97
2022-10-05T02:59:53.481Z,6.99
2022-10-05T03:01:33.510Z,6.99
2022-10-05T03:03:12.470Z,6.99
2022-10-05T03:04:53.156Z,7.03
2022-10-05T03:06:31.782Z,6.98
2022-10-05T03:08:08.838Z,6.90
2022-10-05T03:09:50.572Z,6.82
2022-10-05T03:11:31.186Z,6.74
2022-10-05T03:13:14.210Z,6.73
2022-10-05T03:15:01.004Z,6.71
2022-10-05T03:16:48.875Z,6.65
2022-10-05T03:18:32.920Z,6.58
2022-10-05T03:20:23.542Z,6.52
2022-10-05T03:22:02.038Z,6.48
2022-10-05T03:24:01.893Z,6.48
2022-10-05T03:25:49.281Z,6.46
2022-10-05T03:27:36.843Z,6.38
2022-10-05T03:29:26.524Z,6.36
2022-10-05T03:31:04.794Z,6.32
2022-10-05T03:32:50.189Z,6.33
2022-10-05T03:34:31.400Z,6.32
2022-10-05T03:36:11.266Z,6.34
2022-10-05T03:37:48.365Z,6.32
2022-10-05T03:39:29.081Z,6.34
2022-10-05T03:41:13.941Z,6.36
2022-10-05T03:43:00.178Z,6.36
2022-10-05T03:44:43.413Z,6.37
2022-10-05T03:46:26.128Z,6.38
2022-10-05T03:48:09.674Z,6.37
2022-10-05T03:49:59.153Z,6.39
2022-10-05T03:51:35.137Z,6.40
2022-10-05T03:53:16.337Z,6.42
2022-10-05T03:54:53.365Z,6.41
2022-10-05T03:56:33.290Z,6.41
2022-10-05T03:58:15.098Z,6.44
2022-10-05T03:59:58.656Z,6.45
2022-10-05T04:01:43.538Z,6.50
2022-10-05T04:03:23.306Z,6.54
2022-10-05T04:05:01.522Z,6.56
2022-10-05T04:06:39.455Z,6.57
2022-10-05T04:08:21.105Z,6.56
2022-10-05T04:09:56.121Z,6.60
2022-10-05T04:11:33.069Z,6.63
2022-10-05T04:13:14.171Z,6.61
2022-10-05T04:14:50.469Z,6.64
2022-10-05T04:16:29.133Z,6.63
2022-10-05T04:18:06.748Z,6.63
2022-10-05T04:19:47.179Z,6.66
2022-10-05T04:21:24.982Z,6.63
2022-10-05T04:23:09.232Z,6.64
2022-10-05T04:24:47.506Z,6.68
2022-10-05T04:26:29.580Z,6.70
2022-10-05T04:28:11.736Z,6.73
2022-10-05T04:29:52.273Z,6.77
2022-10-05T04:31:40.280Z,6.80
2022-10-05T04:33:16.233Z,6.77
2022-10-05T04:35:10.899Z,6.79
2022-10-05T04:36:50.358Z,6.73
2022-10-05T04:38:36.252Z,6.64
2022-10-05T04:40:22.970Z,6.61
2022-10-05T04:42:09.400Z,6.58
2022-10-05T04:43:53.639Z,6.54
2022-10-05T04:45:40.620Z,6.54
2022-10-05T04:47:37.001Z,6.54
2022-10-05T04:49:36.023Z,6.54
2022-10-05T04:51:23.876Z,6.51
2022-10-05T04:53:07.582Z,6.54
2022-10-05T04:54:55.385Z,6.60
2022-10-05T04:56:36.452Z,6.63
2022-10-05T04:58:20.600Z,6.61
2022-10-05T05:00:17.368Z,6.68
2022-10-05T05:02:06.635Z,6.71
2022-10-05T05:03:58.187Z,6.75
2022-10-05T05:06:04.997Z,6.85
2022-10-05T05:07:46.293Z,6.98
2022-10-05T05:09:40.575Z,7.04
2022-10-05T05:11:26.224Z,7.19
2022-10-05T05:13:13.265Z,7.24
2022-10-05T05:15:14.698Z,7.24
2022-10-05T05:16:58.318Z,7.26
2022-10-05T05:18:50.056Z,7.28
2022-10-05T05:20:32.486Z,7.34
2022-10-05T05:22:09.820Z,7.44
2022-10-05T05:23:50.739Z,7.55
2022-10-05T05:25:36.481Z,7.78
2022-10-05T05:27:25.070Z,8.05
2022-10-05T05:29:07.635Z,8.33
2022-10-05T05:30:47.233Z,8.68
2022-10-05T05:32:32.175Z,8.90
2022-10-05T05:34:19.046Z,9.05
2022-10-05T05:36:12.489Z,9.36
2022-10-05T05:37:58.635Z,9.68
2022-10-05T05:39:41.194Z,9.95
2022-10-05T05:41:25.024Z,10.16
2022-10-05T05:43:01.880Z,10.46
2022-10-05T05:44:41.846Z,10.85
2022-10-05T05:46:38.895Z,11.30
2022-10-05T05:48:20.305Z,11.88
2022-10-05T05:50:07.879Z,12.36
2022-10-05T05:51:49.515Z,12.92
2022-10-05T05:53:29.604Z,13.28
2022-10-05T05:55:14.354Z,13.55
2022-10-05T05:56:52.741Z,13.84
2022-10-05T05:58:30.802Z,14.08
2022-10-05T06:00:09.390Z,14.46
2022-10-05T06:02:08.387Z,14.73
2022-10-05T06:03:46.098Z,14.97
2022-10-05T06:05:30.056Z,15.00
2022-10-05T06:07:06.391Z,15.34
2022-10-05T06:08:44.741Z,15.59
2022-10-05T06:10:49.580Z,15.93
2022-10-05T06:12:26.363Z,16.07
2022-10-05T06:14:05.392Z,16.22
2022-10-05T06:15:42.135Z,16.46
2022-10-05T06:17:20.947Z,16.66
2022-10-05T06:18:58.611Z,16.93
2022-10-05T06:20:38.384Z,17.11
2022-10-05T06:22:19.245Z,17.35
2022-10-05T06:23:57.839Z,17.53
2022-10-05T06:25:37.704Z,17.55
2022-10-05T06:27:26.287Z,17.66
2022-10-05T06:29:05.322Z,17.81
2022-10-05T06:30:57.887Z,17.86
2022-10-05T06:32:35.153Z,18.11
2022-10-05T06:34:24.366Z,18.15
2022-10-05T06:36:13.970Z,17.99
2022-10-05T06:38:07.844Z,18.03
2022-10-05T06:40:00.952Z,17.99
2022-10-05T06:41:50.988Z,18.36
2022-10-05T06:43:44.794Z,18.60
2022-10-05T06:45:55.710Z,18.87
2022-10-05T06:47:48.358Z,18.75
2022-10-05T06:49:48.722Z,18.92
2022-10-05T06:51:59.464Z,18.96
2022-10-05T06:53:44.690Z,19.23
2022-10-05T06:55:25.088Z,19.33
2022-10-05T06:57:06.386Z,19.77
2022-10-05T06:58:54.915Z,19.94
2022-10-05T07:00:36.115Z,19.80
2022-10-05T07:02:19.169Z,19.76
2022-10-05T07:04:10.659Z,19.51
2022-10-05T07:05:56.687Z,19.53
2022-10-05T07:07:36.886Z,19.54
2022-10-05T07:09:26.860Z,20.00
2022-10-05T07:11:08.307Z,19.98
2022-10-05T07:12:53.824Z,20.17
2022-10-05T07:14:46.005Z,20.36
2022-10-05T07:16:30.108Z,20.15
2022-10-05T07:18:16.643Z,20.23
2022-10-05T07:19:58.499Z,20.54
2022-10-05T07:21:39.620Z,20.81
2022-10-05T07:23:26.726Z,20.85
2022-10-05T07:25:08.512Z,20.90
2022-10-05T07:26:46.835Z,21.00
2022-10-05T07:28:29.487Z,20.95
2022-10-05T07:30:07.319Z,21.10
2022-10-05T07:31:49.169Z,21.02
2022-10-05T07:33:27.715Z,21.23
2022-10-05T07:35:07.461Z,21.30
2022-10-05T07:37:03.156Z,21.49
2022-10-05T07:38:41.557Z,21.56
2022-10-05T07:40:20.078Z,21.59
2022-10-05T07:42:01.142Z,21.74
2022-10-05T07:44:01.378Z,21.54
2022-10-05T07:45:47.091Z,21.73
2022-10-05T07:47:30.322Z,21.99
2022-10-05T07:49:10.732Z,22.27
2022-10-05T07:50:58.053Z,22.38
2022-10-05T07:52:37.674Z,22.23
2022-10-05T07:54:20.491Z,22.12
2022-10-05T07:55:56.930Z,22.39
2022-10-05T07:57:40.217Z,22.59
2022-10-05T07:59:23.561Z,22.55
2022-10-05T08:01:08.180Z,22.55
2022-10-05T08:02:50.537Z,22.77
2022-10-05T08:04:29.208Z,22.92
2022-10-05T08:06:06.797Z,22.88
2022-10-05T08:07:41.453Z,22.78
2022-10-05T08:09:30.155Z,22.91
2022-10-05T08:11:08.937Z,22.73
2022-10-05T08:12:56.065Z,22.52
2022-10-05T08:14:39.887Z,22.84
2022-10-05T08:16:15.035Z,23.18
2022-10-05T08:17:54.346Z,23.28
2022-10-05T08:19:35.369Z,23.43
2022-10-05T08:21:12.216Z,23.57
2022-10-05T08:22:49.433Z,23.52
2022-10-05T08:24:38.500Z,23.69
2022-10-05T08:26:22.898Z,23.81
2022-10-05T08:28:04.542Z,23.79
2022-10-05T08:29:42.471Z,24.22
2022-10-05T08:31:22.764Z,24.68
2022-10-05T08:33:04.333Z,24.88
2022-10-05T08:34:46.892Z,24.78
2022-10-05T08:36:29.483Z,24.92
2022-10-05T08:38:05.420Z,25.09
2022-10-05T08:39:41.408Z,25.20
2022-10-05T08:41:45.942Z,25.14
2022-10-05T08:43:50.881Z,24.94
2022-10-05T08:45:53.754Z,24.90
2022-10-05T08:47:49.551Z,23.97
2022-10-05T08:49:57.544Z,23.53
2022-10-05T08:51:45.646Z,23.86
2022-10-05T08:53:39.294Z,23.84
2022-10-05T08:55:36.103Z,23.79
2022-10-05T08:57:39.857Z,23.34
2022-10-05T09:00:00.480Z,23.72
2022-10-05T09:01:50.899Z,23.68
2022-10-05T09:03:47.399Z,22.70
2022-10-05T09:05:50.397Z,22.36
2022-10-05T09:07:50.725Z,22.02
2022-10-05T09:09:50.335Z,21.22
2022-10-05T09:11:33.652Z,21.04
2022-10-05T09:13:39.495Z,20.92
2022-10-05T09:15:44.232Z,20.76
2022-10-05T09:17:39.112Z,20.49
2022-10-05T09:20:00.573Z,20.28
2022-10-05T09:21:43.003Z,20.29
2022-10-05T09:23:36.091Z,20.24
2022-10-05T09:25:23.102Z,20.08
2022-10-05T09:27:13.374Z,20.02
2022-10-05T09:29:03.046Z,19.85
2022-10-05T09:30:53.876Z,19.71
2022-10-05T09:32:58.740Z,19.65
2022-10-05T09:34:50.396Z,19.64
2022-10-05T09:37:15.715Z,19.58
2022-10-05T09:39:25.423Z,19.49
2022-10-05T09:41:40.727Z,19.42
2022-10-05T09:43:48.607Z,19.55
2022-10-05T09:45:37.141Z,19.70
2022-10-05T09:47:46.521Z,19.74
2022-10-05T09:50:04.676Z,19.97
2022-10-05T09:52:07.182Z,20.10
2022-10-05T09:54:03.309Z,20.12
2022-10-05T09:56:09.380Z,20.24
2022-10-05T09:58:08.197Z,20.16
2022-10-05T10:00:09.110Z,20.31
2022-10-05T10:02:17.092Z,20.42
2022-10-05T10:04:24.811Z,20.59
2022-10-05T10:06:26.218Z,20.55
2022-10-05T10:08:20.405Z,20.51
2022-10-05T10:10:15.129Z,20.58
2022-10-05T10:12:12.453Z,20.37
2022-10-05T10:14:42.358Z,20.44
2022-10-05T10:16:27.343Z,20.22
2022-10-05T10:18:15.747Z,20.37
2022-10-05T10:20:19.990Z,20.49
2022-10-05T10:22:17.599Z,20.46
2022-10-05T10:24:15.230Z,20.46
2022-10-05T10:26:01.518Z,20.57
2022-10-05T10:27:54.301Z,20.51
2022-10-05T10:29:52.479Z,20.51
2022-10-05T10:31:47.034Z,20.49
2022-10-05T10:34:01.846Z,20.75
2022-10-05T10:35:37.153Z,20.74
2022-10-05T10:37:34.665Z,20.64
2022-10-05T10:39:15.628Z,20.55
2022-10-05T10:41:16.811Z,20.40
2022-10-05T10:43:08.038Z,20.35
2022-10-05T10:45:06.440Z,20.29
2022-10-05T10:46:50.645Z,20.31
2022-10-05T10:48:51.407Z,20.43
2022-10-05T10:51:03.623Z,20.49
2022-10-05T10:52:49.855Z,20.59
2022-10-05T10:55:07.406Z,20.67
2022-10-05T10:57:03.238Z,20.50
2022-10-05T10:59:20.752Z,20.46
2022-10-05T11:01:04.761Z,20.22
2022-10-05T11:03:25.541Z,20.22
2022-10-05T11:05:26.194Z,20.17
2022-10-05T11:07:41.805Z,20.04
2022-10-05T11:09:50.432Z,20.02
2022-10-05T11:11:38.414Z,20.07
2022-10-05T11:13:42.926Z,19.97
2022-10-05T11:16:03.427Z,19.99
2022-10-05T11:18:00.976Z,19.80
2022-10-05T11:20:04.115Z,19.88
2022-10-05T11:21:46.931Z,19.83
2022-10-05T11:24:01.487Z,19.84
2022-10-05T11:25:56.725Z,19.90
2022-10-05T11:27:59.983Z,19.97
2022-10-05T11:30:06.922Z,20.12
2022-10-05T11:32:08.940Z,20.08
2022-10-05T11:34:09.964Z,20.15
2022-10-05T11:35:57.238Z,20.18
2022-10-05T11:37:48.803Z,20.19
2022-10-05T11:39:44.573Z,20.29
2022-10-05T11:41:47.997Z,20.29
2022-10-05T11:43:42.402Z,20.38
2022-10-05T11:45:28.124Z,20.44
2022-10-05T11:47:10.878Z,20.49
2022-10-05T11:49:08.390Z,20.59
2022-10-05T11:50:50.973Z,20.70
2022-10-05T11:52:31.749Z,20.81
2022-10-05T11:54:29.541Z,20.92
2022-10-05T11:56:15.483Z,20.87
2022-10-05T11:57:56.985Z,20.91
2022-10-05T11:59:36.542Z,20.91
2022-10-05T12:01:18.904Z,20.97
2022-10-05T12:03:22.857Z,21.13
2022-10-05T12:05:04.678Z,21.16
2022-10-05T12:07:13.443Z,21.23
2022-10-05T12:09:06.466Z,21.17
2022-10-05T12:10:49.551Z,21.24
2022-10-05T12:12:29.242Z,21.35
2022-10-05T12:14:07.927Z,21.39
2022-10-05T12:15:49.336Z,21.55
2022-10-05T12:17:33.741Z,21.69
2022-10-05T12:19:14.575Z,21.75
2022-10-05T12:20:51.454Z,21.84
2022-10-05T12:22:32.729Z,21.86
2022-10-05T12:24:15.639Z,21.91
2022-10-05T12:25:55.290Z,21.76
2022-10-05T12:27:33.172Z,21.61
2022-10-05T12:29:14.988Z,21.61
2022-10-05T12:31:11.490Z,21.61
2022-10-05T12:33:00.915Z,21.64
2022-10-05T12:34:44.405Z,21.51
2022-10-05T12:36:31.928Z,21.52
2022-10-05T12:38:29.063Z,21.54
2022-10-05T12:40:07.291Z,21.58
2022-10-05T12:41:46.535Z,21.57
2022-10-05T12:43:29.879Z,21.55
2022-10-05T12:45:18.334Z,21.57
2022-10-05T12:47:02.345Z,21.62
2022-10-05T12:49:09.595Z,21.75
2022-10-05T12:50:46.520Z,21.66
2022-10-05T12:52:39.326Z,21.65
2022-10-05T12:54:23.350Z,21.61
2022-10-05T12:56:05.520Z,21.62
2022-10-05T12:57:50.221Z,21.64
2022-10-05T12:59:35.480Z,21.59
2022-10-05T13:01:19.238Z,21.52
2022-10-05T13:02:59.354Z,21.45
2022-10-05T13:04:42.789Z,21.38
2022-10-05T13:06:27.555Z,21.30
2022-10-05T13:08:18.135Z,21.21
2022-10-05T13:09:59.513Z,21.19
2022-10-05T13:11:39.655Z,21.25
2022-10-05T13:13:28.867Z,21.11
2022-10-05T13:15:09.154Z,21.18
2022-10-05T13:16:55.105Z,21.21
2022-10-05T13:18:38.779Z,21.27
2022-10-05T13:20:23.952Z,21.25
2022-10-05T13:22:18.319Z,21.27
2022-10-05T13:24:00.242Z,21.17
2022-10-05T13:25:37.304Z,21.19
2022-10-05T13:27:20.618Z,21.18
2022-10-05T13:29:00.780Z,21.21
2022-10-05T13:30:35.411Z,21.18
2022-10-05T13:32:16.971Z,21.13
2022-10-05T13:34:13.011Z,21.23
2022-10-05T13:35:54.210Z,21.20
2022-10-05T13:37:35.047Z,21.23
2022-10-05T13:39:21.958Z,21.21
2022-10-05T13:41:08.153Z,21.21
2022-10-05T13:42:48.306Z,21.23
2022-10-05T13:44:31.031Z,21.23
2022-10-05T13:46:12.756Z,21.22
2022-10-05T13:47:57.541Z,21.25
2022-10-05T13:49:40.164Z,21.25
2022-10-05T13:51:20.487Z,21.21
2022-10-05T13:53:00.956Z,21.20
2022-10-05T13:54:41.513Z,21.15
2022-10-05T13:56:21.909Z,21.10
2022-10-05T13:58:05.883Z,21.00
2022-10-05T13:59:47.618Z,20.99
2022-10-05T14:01:26.279Z,21.03
2022-10-05T14:03:02.042Z,21.01
2022-10-05T14:04:45.631Z,21.07
2022-10-05T14:06:30.948Z,21.01
2022-10-05T14:08:18.330Z,20.97
2022-10-05T14:09:51.968Z,20.95
2022-10-05T14:11:32.003Z,20.85
2022-10-05T14:13:21.075Z,20.77
2022-10-05T14:14:56.865Z,20.79
2022-10-05T14:16:30.387Z,20.82
2022-10-05T14:18:24.845Z,20.86
2022-10-05T14:20:01.060Z,20.86
2022-10-05T14:21:49.771Z,20.86
2022-10-05T14:23:27.473Z,20.81
2022-10-05T14:25:17.149Z,20.67
2022-10-05T14:26:55.095Z,20.71
2022-10-05T14:28:30.772Z,20.65
2022-10-05T14:30:20.251Z,20.61
2022-10-05T14:31:56.409Z,20.62
2022-10-05T14:33:31.915Z,20.63
2022-10-05T14:35:14.831Z,20.63
2022-10-05T14:36:57.363Z,20.61
2022-10-05T14:38:33.746Z,20.58
2022-10-05T14:40:24.640Z,20.52
2022-10-05T14:42:03.536Z,20.42
2022-10-05T14:43:38.789Z,20.29
2022-10-05T14:45:15.403Z,20.16
2022-10-05T14:46:54.575Z,20.03
2022-10-05T14:48:29.394Z,19.97
2022-10-05T14:50:17.227Z,19.92
2022-10-05T14:51:53.493Z,19.88
2022-10-05T14:53:38.222Z,19.83
2022-10-05T14:55:23.267Z,19.82
2022-10-05T14:57:07.172Z,19.79
2022-10-05T14:58:55.667Z,19.77
2022-10-05T15:00:33.986Z,19.74
2022-10-05T15:02:24.465Z,19.68
2022-10-05T15:04:08.809Z,19.71
2022-10-05T15:05:49.305Z,19.73
2022-10-05T15:07:29.552Z,19.74
2022-10-05T15:09:26.225Z,19.72
2022-10-05T15:11:05.334Z,19.90
2022-10-05T15:12:44.073Z,20.04
2022-10-05T15:14:21.124Z,20.04
2022-10-05T15:15:57.838Z,20.06
2022-10-05T15:17:38.569Z,20.10
2022-10-05T15:19:18.400Z,20.11
2022-10-05T15:20:58.538Z,20.14
2022-10-05T15:22:43.967Z,20.22
2022-10-05T15:24:22.029Z,20.43
2022-10-05T15:26:08.520Z,20.65
2022-10-05T15:28:00.305Z,20.74
2022-10-05T15:29:52.197Z,20.65
2022-10-05T15:31:32.499Z,20.46
2022-10-05T15:33:13.970Z,20.27
2022-10-05T15:34:58.601Z,20.07
2022-10-05T15:36:43.075Z,19.89
2022-10-05T15:38:23.199Z,19.71
2022-10-05T15:40:01.097Z,19.46
2022-10-05T15:41:47.212Z,19.35
2022-10-05T15:43:22.770Z,19.21
2022-10-05T15:45:06.248Z,19.04
2022-10-05T15:46:50.671Z,18.83
2022-10-05T15:48:30.342Z,18.66
2022-10-05T15:50:14.470Z,18.52
2022-10-05T15:51:57.602Z,18.42
2022-10-05T15:53:43.283Z,18.33
2022-10-05T15:55:26.505Z,18.24
2022-10-05T15:57:06.469Z,18.24
2022-10-05T15:58:51.881Z,18.14
2022-10-05T16:00:27.646Z,18.08
2022-10-05T16:02:06.609Z,17.98
2022-10-05T16:03:50.342Z,17.91
2022-10-05T16:05:53.522Z,17.85
2022-10-05T16:07:49.820Z,17.80
2022-10-05T16:09:47.899Z,17.72
2022-10-05T16:11:46.420Z,17.63
2022-10-05T16:13:34.214Z,17.55
2022-10-05T16:15:21.737Z,17.42
2022-10-05T16:17:07.453Z,17.33
2022-10-05T16:18:53.477Z,17.29
2022-10-05T16:20:36.930Z,17.18
2022-10-05T16:22:23.811Z,17.09
2022-10-05T16:24:09.659Z,17.02
2022-10-05T16:25:53.303Z,16.97
2022-10-05T16:27:36.292Z,16.91
2022-10-05T16:29:16.317Z,16.86
2022-10-05T16:31:07.255Z,16.80
2022-10-05T16:32:50.077Z,16.72
2022-10-05T16:34:33.595Z,16.67
2022-10-05T16:36:19.506Z,16.59
2022-10-05T16:38:05.937Z,16.52
2022-10-05T16:39:51.323Z,16.42
2022-10-05T16:41:33.561Z,16.39
2022-10-05T16:43:22.652Z,16.33
2022-10-05T16:45:06.915Z,16.24
2022-10-05T16:46:46.538Z,16.18
2022-10-05T16:48:26.792Z,16.13
2022-10-05T16:50:10.027Z,16.07
2022-10-05T16:51:54.267Z,16.02
2022-10-05T16:53:34.562Z,15.92
2022-10-05T16:55:14.534Z,15.83
2022-10-05T16:56:53.974Z,15.67
2022-10-05T16:58:43.106Z,15.56
2022-10-05T17:00:22.256Z,15.51
2022-10-05T17:02:05.556Z,15.34
2022-10-05T17:03:50.445Z,15.16
2022-10-05T17:05:40.705Z,15.10
2022-10-05T17:07:28.776Z,15.01
2022-10-05T17:09:20.536Z,14.89
2022-10-05T17:11:03.249Z,14.82
2022-10-05T17:12:53.365Z,14.79
2022-10-05T17:14:39.091Z,14.70
2022-10-05T17:16:21.645Z,14.62
2022-10-05T17:18:07.431Z,14.47
2022-10-05T17:19:49.859Z,14.46
2022-10-05T17:21:32.561Z,14.36
2022-10-05T17:23:23.894Z,14.31
2022-10-05T17:25:08.679Z,14.26
2022-10-05T17:27:02.930Z,14.18
2022-10-05T17:28:44.413Z,14.15
2022-10-05T17:30:50.589Z,14.13
2022-10-05T17:32:36.663Z,14.07
2022-10-05T17:34:31.120Z,14.02
2022-10-05T17:36:19.264Z,14.00
2022-10-05T17:38:14.263Z,13.98
2022-10-05T17:39:53.518Z,13.96
2022-10-05T17:41:30.548Z,13.95
2022-10-05T17:43:24.039Z,13.91
2022-10-05T17:45:00.651Z,13.89
2022-10-05T17:46:42.614Z,13.85
2022-10-05T17:48:54.254Z,13.83
2022-10-05T17:50:57.129Z,13.83
2022-10-05T17:52:47.938Z,13.81
2022-10-05T17:54:41.128Z,13.70
2022-10-05T17:56:14.439Z,13.57
2022-10-05T17:57:46.979Z,13.36
2022-10-05T17:59:39.928Z,13.23
2022-10-05T18:01:26.817Z,13.09
2022-10-05T18:03:00.276Z,12.96
2022-10-05T18:04:42.465Z,12.91
2022-10-05T18:06:44.942Z,12.75
2022-10-05T18:08:32.620Z,12.69
2022-10-05T18:10:27.982Z,12.62
2022-10-05T18:12:11.000Z,12.59
2022-10-05T18:13:50.175Z,12.58
2022-10-05T18:15:46.784Z,12.55
2022-10-05T18:17:40.731Z,12.49
2022-10-05T18:19:17.376Z,12.40
2022-10-05T18:21:32.416Z,12.32
2022-10-05T18:23:30.288Z,12.22
2022-10-05T18:25:07.506Z,12.14
2022-10-05T18:26:52.450Z,12.15
2022-10-05T18:28:35.740Z,12.14
2022-10-05T18:30:18.854Z,12.14
2022-10-05T18:31:59.770Z,12.14
2022-10-05T18:33:50.290Z,12.13
2022-10-05T18:35:28.810Z,12.15
2022-10-05T18:37:17.460Z,12.14
2022-10-05T18:39:02.513Z,12.15
2022-10-05T18:40:44.604Z,12.14
2022-10-05T18:42:27.863Z,12.11
2022-10-05T18:44:14.632Z,12.11
2022-10-05T18:46:01.499Z,12.14
2022-10-05T18:47:45.100Z,12.15
2022-10-05T18:49:34.687Z,12.15
2022-10-05T18:51:15.909Z,12.15
2022-10-05T18:53:05.785Z,12.10
2022-10-05T18:54:48.966Z,12.10
2022-10-05T18:56:27.439Z,12.10
2022-10-05T18:58:21.562Z,12.12
2022-10-05T19:00:01.969Z,12.11
2022-10-05T19:01:57.101Z,12.07
2022-10-05T19:03:37.034Z,12.08
2022-10-05T19:05:46.410Z,12.05
2022-10-05T19:07:26.691Z,12.04
2022-10-05T19:09:08.231Z,12.00
2022-10-05T19:10:46.167Z,11.92
2022-10-05T19:12:29.319Z,11.87
2022-10-05T19:14:12.548Z,11.74
2022-10-05T19:15:55.646Z,11.61
2022-10-05T19:17:48.266Z,11.50
2022-10-05T19:19:48.262Z,11.32
2022-10-05T19:21:32.107Z,11.14
2022-10-05T19:23:18.628Z,11.10
2022-10-05T19:25:13.808Z,11.06
2022-10-05T19:27:03.988Z,10.97
2022-10-05T19:28:42.711Z,10.99
2022-10-05T19:30:21.663Z,10.98
2022-10-05T19:32:01.006Z,10.94
2022-10-05T19:33:46.130Z,10.88
2022-10-05T19:35:29.889Z,10.90
2022-10-05T19:37:09.437Z,10.87
2022-10-05T19:38:54.470Z,10.85
2022-10-05T19:40:39.006Z,10.81
2022-10-05T19:42:25.469Z,10.76
2022-10-05T19:44:13.658Z,10.79
2022-10-05T19:45:59.501Z,10.76
2022-10-05T19:47:46.884Z,10.77
2022-10-05T19:49:43.004Z,10.73
2022-10-05T19:51:27.909Z,10.71
2022-10-05T19:53:13.265Z,10.69
2022-10-05T19:54:47.776Z,10.66
2022-10-05T19:56:22.681Z,10.61
2022-10-05T19:57:59.907Z,10.68
2022-10-05T19:59:33.050Z,10.67
2022-10-05T20:01:06.992Z,10.65
2022-10-05T20:02:42.179Z,10.65
2022-10-05T20:04:16.669Z,10.63
2022-10-05T20:05:50.541Z,10.63
2022-10-05T20:07:23.820Z,10.62
2022-10-05T20:09:04.581Z,10.63
2022-10-05T20:10:36.966Z,10.62
2022-10-05T20:12:10.213Z,10.60
2022-10-05T20:13:44.976Z,10.58
2022-10-05T20:15:38.303Z,10.58
2022-10-05T20:17:36.022Z,10.53
2022-10-05T20:19:45.226Z,10.60
2022-10-05T20:21:45.994Z,10.55
2022-10-05T20:23:23.809Z,10.45
2022-10-05T20:25:01.261Z,10.38
2022-10-05T20:27:00.731Z,10.33
2022-10-05T20:28:34.694Z,10.31
2022-10-05T20:30:09.941Z,10.26
2022-10-05T20:31:43.420Z,10.24
2022-10-05T20:33:17.014Z,10.25
2022-10-05T20:34:51.158Z,10.20
2022-10-05T20:36:24.430Z,10.17
2022-10-05T20:38:00.079Z,10.07
2022-10-05T20:39:33.460Z,9.96
2022-10-05T20:41:08.100Z,9.90
2022-10-05T20:42:41.364Z,9.79
2022-10-05T20:44:14.809Z,9.76
2022-10-05T20:45:48.067Z,9.78
2022-10-05T20:47:23.156Z,9.77
2022-10-05T20:48:56.391Z,9.76
2022-10-05T20:50:29.509Z,9.71
2022-10-05T20:52:03.159Z,9.68
2022-10-05T20:53:36.476Z,9.68
2022-10-05T20:55:12.354Z,9.66
2022-10-05T20:56:46.114Z,9.65
2022-10-05T20:58:19.790Z,9.64
2022-10-05T20:59:53.274Z,9.60
2022-10-05T21:01:27.118Z,9.69
2022-10-05T21:03:01.125Z,9.70
2022-10-05T21:04:42.879Z,9.69
2022-10-05T21:06:17.972Z,9.66
2022-10-05T21:07:51.179Z,9.68
2022-10-05T21:09:24.342Z,9.69
2022-10-05T21:10:57.698Z,9.70
2022-10-05T21:12:34.696Z,9.71
2022-10-05T21:14:07.865Z,9.71
2022-10-05T21:15:41.018Z,9.70
2022-10-05T21:17:14.508Z,9.56
2022-10-05T21:18:49.431Z,9.64
2022-10-05T21:20:22.569Z,9.64
2022-10-05T21:21:58.094Z,9.60
2022-10-05T21:23:32.749Z,9.52
2022-10-05T21:25:09.058Z,9.47
2022-10-05T21:26:42.611Z,9.47
2022-10-05T21:28:17.203Z,9.48
2022-10-05T21:29:51.427Z,9.48
2022-10-05T21:31:24.699Z,9.44
2022-10-05T21:32:57.905Z,9.40
2022-10-05T21:34:31.424Z,9.39
2022-10-05T21:36:05.214Z,9.40
2022-10-05T21:37:38.591Z,9.40
2022-10-05T21:39:11.809Z,9.39
2022-10-05T21:40:45.591Z,9.40
2022-10-05T21:42:18.989Z,9.36
2022-10-05T21:43:53.761Z,9.29
2022-10-05T21:45:32.917Z,9.29
2022-10-05T21:47:07.014Z,9.26
2022-10-05T21:48:41.716Z,9.25
2022-10-05T21:50:15.035Z,9.22
2022-10-05T21:51:48.741Z,9.21
2022-10-05T21:53:26.515Z,9.20
2022-10-05T21:54:59.846Z,9.22
2022-10-05T21:56:42.973Z,9.23
2022-10-05T21:58:17.816Z,9.20
2022-10-05T21:59:52.366Z,9.20
2022-10-05T22:01:24.636Z,9.16
2022-10-05T22:02:57.892Z,9.11
2022-10-05T22:04:31.079Z,9.05
2022-10-05T22:06:04.773Z,8.98
2022-10-05T22:07:38.578Z,8.83
2022-10-05T22:09:12.245Z,8.71
2022-10-05T22:10:45.454Z,8.66
2022-10-05T22:12:19.868Z,8.62
2022-10-05T22:13:54.817Z,8.62
2022-10-05T22:15:29.680Z,8.64
2022-10-05T22:17:02.856Z,8.57
2022-10-05T22:18:36.489Z,8.57
2022-10-05T22:20:13.522Z,8.57
2022-10-05T22:21:46.648Z,8.61
2022-10-05T22:23:20.127Z,8.62
2022-10-05T22:24:53.076Z,8.56
2022-10-05T22:26:26.409Z,8.53
2022-10-05T22:27:59.625Z,8.51
2022-10-05T22:29:32.946Z,8.50
2022-10-05T22:31:09.545Z,8.50
2022-10-05T22:32:43.248Z,8.53
2022-10-05T22:34:16.767Z,8.54
2022-10-05T22:35:50.044Z,8.50
2022-10-05T22:37:23.288Z,8.49
2022-10-05T22:38:56.822Z,8.46
2022-10-05T22:40:30.228Z,8.42
2022-10-05T22:42:03.394Z,8.43
2022-10-05T22:43:36.898Z,8.38